sensor_id;sensor_type;location;lat;lon;timestamp;P1;durP1;ratioP1;P2;durP2;ratioP2
75450;SDS011;64029;48.244;9.188;2023-04-24T00:02:00;1.27;;;1.13;;
75450;SDS011;64029;48.244;9.188;2023-04-24T00:04:28;1.33;;;0.93;;
75450;SDS011;64029;48.244;9.188;2023-04-24T00:06:56;3.47;;;1.30;;
75450;SDS011;64029;48.244;9.188;2023-04-24T00:09:25;1.30;;;1.20;;
75450;SDS011;64029;48.244;9.188;2023-04-24T00:11:52;1.30;;;1.20;;
75450;SDS011;64029;48.244;9.188;2023-04-24T00:14:19;2.47;;;1.10;;
75450;SDS011;64029;48.244;9.188;2023-04-24T00:16:47;2.27;;;1.10;;
75450;SDS011;64029;48.244;9.188;2023-04-24T00:19:14;1.30;;;1.00;;
75450;SDS011;64029;48.244;9.188;2023-04-24T00:21:41;2.70;;;1.20;;
75450;SDS011;64029;48.244;9.188;2023-04-24T00:24:08;1.47;;;1.10;;
75450;SDS011;64029;48.244;9.188;2023-04-24T00:26:35;1.20;;;1.10;;
75450;SDS011;64029;48.244;9.188;2023-04-24T00:29:02;1.43;;;1.30;;
75450;SDS011;64029;48.244;9.188;2023-04-24T00:31:29;1.33;;;1.23;;
75450;SDS011;64029;48.244;9.188;2023-04-24T00:33:57;1.27;;;1.00;;
75450;SDS011;64029;48.244;9.188;2023-04-24T00:36:24;1.13;;;0.97;;
75450;SDS011;64029;48.244;9.188;2023-04-24T00:38:52;1.40;;;1.00;;
75450;SDS011;64029;48.244;9.188;2023-04-24T00:41:18;1.30;;;1.10;;
75450;SDS011;64029;48.244;9.188;2023-04-24T00:43:46;1.20;;;1.00;;
75450;SDS011;64029;48.244;9.188;2023-04-24T00:46:13;1.70;;;1.20;;
75450;SDS011;64029;48.244;9.188;2023-04-24T00:48:40;1.63;;;1.20;;
75450;SDS011;64029;48.244;9.188;2023-04-24T00:51:08;1.10;;;1.00;;
75450;SDS011;64029;48.244;9.188;2023-04-24T00:53:35;1.47;;;1.20;;
75450;SDS011;64029;48.244;9.188;2023-04-24T00:56:02;1.43;;;1.03;;
75450;SDS011;64029;48.244;9.188;2023-04-24T00:58:30;2.70;;;1.10;;
75450;SDS011;64029;48.244;9.188;2023-04-24T01:00:57;3.83;;;1.20;;
75450;SDS011;64029;48.244;9.188;2023-04-24T01:03:26;1.77;;;1.30;;
75450;SDS011;64029;48.244;9.188;2023-04-24T01:05:56;1.83;;;1.20;;
75450;SDS011;64029;48.244;9.188;2023-04-24T01:08:25;2.27;;;1.33;;
75450;SDS011;64029;48.244;9.188;2023-04-24T01:10:54;1.63;;;1.20;;
75450;SDS011;64029;48.244;9.188;2023-04-24T01:13:23;1.10;;;1.00;;
75450;SDS011;64029;48.244;9.188;2023-04-24T01:15:50;1.57;;;1.23;;
75450;SDS011;64029;48.244;9.188;2023-04-24T01:18:17;1.30;;;1.10;;
75450;SDS011;64029;48.244;9.188;2023-04-24T01:20:44;2.00;;;1.10;;
75450;SDS011;64029;48.244;9.188;2023-04-24T01:23:13;1.37;;;1.10;;
75450;SDS011;64029;48.244;9.188;2023-04-24T01:25:40;1.50;;;1.17;;
75450;SDS011;64029;48.244;9.188;2023-04-24T01:28:07;1.43;;;0.90;;
75450;SDS011;64029;48.244;9.188;2023-04-24T01:30:34;1.30;;;1.20;;
75450;SDS011;64029;48.244;9.188;2023-04-24T01:33:01;1.40;;;1.27;;
75450;SDS011;64029;48.244;9.188;2023-04-24T01:35:28;1.27;;;1.17;;
75450;SDS011;64029;48.244;9.188;2023-04-24T01:37:55;3.07;;;1.80;;
75450;SDS011;64029;48.244;9.188;2023-04-24T01:40:23;1.53;;;1.10;;
75450;SDS011;64029;48.244;9.188;2023-04-24T01:42:50;1.30;;;1.20;;
75450;SDS011;64029;48.244;9.188;2023-04-24T01:45:17;2.10;;;1.20;;
75450;SDS011;64029;48.244;9.188;2023-04-24T01:47:45;1.13;;;1.00;;
75450;SDS011;64029;48.244;9.188;2023-04-24T01:50:14;1.50;;;1.23;;
75450;SDS011;64029;48.244;9.188;2023-04-24T01:52:41;1.40;;;1.30;;
75450;SDS011;64029;48.244;9.188;2023-04-24T01:55:08;2.30;;;1.30;;
75450;SDS011;64029;48.244;9.188;2023-04-24T01:57:37;3.33;;;1.30;;
75450;SDS011;64029;48.244;9.188;2023-04-24T02:00:05;1.33;;;1.20;;
75450;SDS011;64029;48.244;9.188;2023-04-24T02:02:32;2.30;;;1.33;;
75450;SDS011;64029;48.244;9.188;2023-04-24T02:05:00;2.63;;;1.43;;
75450;SDS011;64029;48.244;9.188;2023-04-24T02:07:27;2.60;;;1.47;;
75450;SDS011;64029;48.244;9.188;2023-04-24T02:09:54;2.50;;;1.40;;
75450;SDS011;64029;48.244;9.188;2023-04-24T02:12:21;2.47;;;1.07;;
75450;SDS011;64029;48.244;9.188;2023-04-24T02:14:49;1.33;;;1.23;;
75450;SDS011;64029;48.244;9.188;2023-04-24T02:17:16;1.87;;;1.30;;
75450;SDS011;64029;48.244;9.188;2023-04-24T02:19:44;3.17;;;1.47;;
75450;SDS011;64029;48.244;9.188;2023-04-24T02:22:11;2.37;;;1.30;;
75450;SDS011;64029;48.244;9.188;2023-04-24T02:24:38;1.60;;;1.20;;
75450;SDS011;64029;48.244;9.188;2023-04-24T02:27:05;1.17;;;1.07;;
75450;SDS011;64029;48.244;9.188;2023-04-24T02:29:32;1.77;;;1.20;;
75450;SDS011;64029;48.244;9.188;2023-04-24T02:32:01;2.23;;;1.30;;
75450;SDS011;64029;48.244;9.188;2023-04-24T02:34:27;1.83;;;1.13;;
75450;SDS011;64029;48.244;9.188;2023-04-24T02:36:54;2.90;;;1.03;;
75450;SDS011;64029;48.244;9.188;2023-04-24T02:39:21;2.40;;;1.10;;
75450;SDS011;64029;48.244;9.188;2023-04-24T02:41:48;3.00;;;1.37;;
75450;SDS011;64029;48.244;9.188;2023-04-24T02:44:15;1.50;;;1.23;;
75450;SDS011;64029;48.244;9.188;2023-04-24T02:46:42;1.93;;;1.30;;
75450;SDS011;64029;48.244;9.188;2023-04-24T02:49:11;1.80;;;1.03;;
75450;SDS011;64029;48.244;9.188;2023-04-24T02:51:37;1.03;;;0.93;;
75450;SDS011;64029;48.244;9.188;2023-04-24T02:54:06;0.93;;;0.90;;
75450;SDS011;64029;48.244;9.188;2023-04-24T02:56:33;3.00;;;1.07;;
75450;SDS011;64029;48.244;9.188;2023-04-24T02:59:00;3.40;;;1.30;;
75450;SDS011;64029;48.244;9.188;2023-04-24T03:01:27;1.83;;;0.90;;
75450;SDS011;64029;48.244;9.188;2023-04-24T03:03:54;1.97;;;1.10;;
75450;SDS011;64029;48.244;9.188;2023-04-24T03:06:22;1.20;;;1.10;;
75450;SDS011;64029;48.244;9.188;2023-04-24T03:08:49;1.50;;;1.30;;
75450;SDS011;64029;48.244;9.188;2023-04-24T03:11:16;1.37;;;1.20;;
75450;SDS011;64029;48.244;9.188;2023-04-24T03:13:43;1.90;;;1.17;;
75450;SDS011;64029;48.244;9.188;2023-04-24T03:16:10;1.33;;;1.17;;
75450;SDS011;64029;48.244;9.188;2023-04-24T03:18:37;2.50;;;1.20;;
75450;SDS011;64029;48.244;9.188;2023-04-24T03:21:03;1.10;;;0.90;;
75450;SDS011;64029;48.244;9.188;2023-04-24T03:23:32;1.67;;;1.07;;
75450;SDS011;64029;48.244;9.188;2023-04-24T03:25:58;1.47;;;0.80;;
75450;SDS011;64029;48.244;9.188;2023-04-24T03:28:26;3.10;;;1.00;;
75450;SDS011;64029;48.244;9.188;2023-04-24T03:30:52;1.20;;;1.00;;
75450;SDS011;64029;48.244;9.188;2023-04-24T03:33:19;1.63;;;1.20;;
75450;SDS011;64029;48.244;9.188;2023-04-24T03:35:46;1.23;;;1.03;;
75450;SDS011;64029;48.244;9.188;2023-04-24T03:38:13;6.77;;;1.10;;
75450;SDS011;64029;48.244;9.188;2023-04-24T03:40:41;1.40;;;1.30;;
75450;SDS011;64029;48.244;9.188;2023-04-24T03:43:08;1.27;;;1.10;;
75450;SDS011;64029;48.244;9.188;2023-04-24T03:45:35;2.70;;;1.47;;
75450;SDS011;64029;48.244;9.188;2023-04-24T03:48:01;1.07;;;0.97;;
75450;SDS011;64029;48.244;9.188;2023-04-24T03:50:28;1.90;;;1.33;;
75450;SDS011;64029;48.244;9.188;2023-04-24T03:52:55;1.97;;;1.30;;
75450;SDS011;64029;48.244;9.188;2023-04-24T03:55:22;1.93;;;1.40;;
75450;SDS011;64029;48.244;9.188;2023-04-24T03:57:50;1.97;;;1.23;;
75450;SDS011;64029;48.244;9.188;2023-04-24T04:00:17;1.47;;;1.20;;
75450;SDS011;64029;48.244;9.188;2023-04-24T04:02:46;2.00;;;1.53;;
75450;SDS011;64029;48.244;9.188;2023-04-24T04:05:12;2.63;;;1.23;;
75450;SDS011;64029;48.244;9.188;2023-04-24T04:07:39;3.50;;;1.10;;
75450;SDS011;64029;48.244;9.188;2023-04-24T04:10:07;1.33;;;1.23;;
75450;SDS011;64029;48.244;9.188;2023-04-24T04:12:34;1.20;;;1.10;;
75450;SDS011;64029;48.244;9.188;2023-04-24T04:15:02;1.67;;;1.00;;
75450;SDS011;64029;48.244;9.188;2023-04-24T04:17:31;4.20;;;1.40;;
75450;SDS011;64029;48.244;9.188;2023-04-24T04:19:57;1.97;;;1.20;;
75450;SDS011;64029;48.244;9.188;2023-04-24T04:22:25;1.17;;;1.07;;
75450;SDS011;64029;48.244;9.188;2023-04-24T04:24:51;1.40;;;1.00;;
75450;SDS011;64029;48.244;9.188;2023-04-24T04:27:18;1.27;;;1.17;;
75450;SDS011;64029;48.244;9.188;2023-04-24T04:29:46;1.20;;;1.10;;
75450;SDS011;64029;48.244;9.188;2023-04-24T04:32:14;1.40;;;1.13;;
75450;SDS011;64029;48.244;9.188;2023-04-24T04:34:42;2.90;;;1.40;;
75450;SDS011;64029;48.244;9.188;2023-04-24T04:37:10;2.80;;;1.17;;
75450;SDS011;64029;48.244;9.188;2023-04-24T04:39:37;4.43;;;1.20;;
75450;SDS011;64029;48.244;9.188;2023-04-24T04:42:04;1.40;;;1.30;;
75450;SDS011;64029;48.244;9.188;2023-04-24T04:44:31;1.53;;;1.17;;
75450;SDS011;64029;48.244;9.188;2023-04-24T04:47:00;1.60;;;1.20;;
75450;SDS011;64029;48.244;9.188;2023-04-24T04:49:31;2.30;;;1.07;;
75450;SDS011;64029;48.244;9.188;2023-04-24T04:51:59;1.40;;;1.30;;
75450;SDS011;64029;48.244;9.188;2023-04-24T04:54:25;1.53;;;1.23;;
75450;SDS011;64029;48.244;9.188;2023-04-24T04:56:52;1.10;;;0.90;;
75450;SDS011;64029;48.244;9.188;2023-04-24T04:59:19;1.40;;;1.00;;
75450;SDS011;64029;48.244;9.188;2023-04-24T05:01:46;1.23;;;1.10;;
75450;SDS011;64029;48.244;9.188;2023-04-24T05:04:13;2.37;;;1.43;;
75450;SDS011;64029;48.244;9.188;2023-04-24T05:06:41;1.40;;;1.30;;
75450;SDS011;64029;48.244;9.188;2023-04-24T05:09:08;2.17;;;1.20;;
75450;SDS011;64029;48.244;9.188;2023-04-24T05:11:35;4.10;;;2.50;;
75450;SDS011;64029;48.244;9.188;2023-04-24T05:14:01;2.90;;;1.90;;
75450;SDS011;64029;48.244;9.188;2023-04-24T05:16:28;4.87;;;2.00;;
75450;SDS011;64029;48.244;9.188;2023-04-24T05:18:55;1.43;;;1.20;;
75450;SDS011;64029;48.244;9.188;2023-04-24T05:21:22;1.97;;;1.43;;
75450;SDS011;64029;48.244;9.188;2023-04-24T05:23:50;2.00;;;1.80;;
75450;SDS011;64029;48.244;9.188;2023-04-24T05:26:17;3.03;;;1.90;;
75450;SDS011;64029;48.244;9.188;2023-04-24T05:28:44;2.83;;;1.90;;
75450;SDS011;64029;48.244;9.188;2023-04-24T05:31:11;2.20;;;1.60;;
75450;SDS011;64029;48.244;9.188;2023-04-24T05:33:38;2.13;;;1.87;;
75450;SDS011;64029;48.244;9.188;2023-04-24T05:36:05;2.47;;;2.20;;
75450;SDS011;64029;48.244;9.188;2023-04-24T05:38:32;2.60;;;2.10;;
75450;SDS011;64029;48.244;9.188;2023-04-24T05:41:01;2.20;;;1.83;;
75450;SDS011;64029;48.244;9.188;2023-04-24T05:43:28;3.33;;;2.30;;
75450;SDS011;64029;48.244;9.188;2023-04-24T05:45:54;2.73;;;2.27;;
75450;SDS011;64029;48.244;9.188;2023-04-24T05:48:21;4.63;;;2.80;;
75450;SDS011;64029;48.244;9.188;2023-04-24T05:50:48;4.73;;;1.90;;
75450;SDS011;64029;48.244;9.188;2023-04-24T05:53:15;4.03;;;2.87;;
75450;SDS011;64029;48.244;9.188;2023-04-24T05:55:42;6.20;;;3.37;;
75450;SDS011;64029;48.244;9.188;2023-04-24T05:58:11;3.37;;;3.07;;
75450;SDS011;64029;48.244;9.188;2023-04-24T06:00:38;3.93;;;2.83;;
75450;SDS011;64029;48.244;9.188;2023-04-24T06:03:07;2.67;;;2.43;;
75450;SDS011;64029;48.244;9.188;2023-04-24T06:05:34;5.03;;;2.70;;
75450;SDS011;64029;48.244;9.188;2023-04-24T06:08:01;7.50;;;3.10;;
75450;SDS011;64029;48.244;9.188;2023-04-24T06:10:28;3.37;;;3.07;;
75450;SDS011;64029;48.244;9.188;2023-04-24T06:12:55;5.80;;;3.80;;
75450;SDS011;64029;48.244;9.188;2023-04-24T06:15:26;4.10;;;3.00;;
75450;SDS011;64029;48.244;9.188;2023-04-24T06:17:55;7.57;;;2.90;;
75450;SDS011;64029;48.244;9.188;2023-04-24T06:20:22;3.40;;;2.73;;
75450;SDS011;64029;48.244;9.188;2023-04-24T06:22:49;5.13;;;3.23;;
75450;SDS011;64029;48.244;9.188;2023-04-24T06:25:16;4.67;;;2.80;;
75450;SDS011;64029;48.244;9.188;2023-04-24T06:27:43;5.97;;;3.00;;
75450;SDS011;64029;48.244;9.188;2023-04-24T06:30:10;5.90;;;2.93;;
75450;SDS011;64029;48.244;9.188;2023-04-24T06:32:38;3.30;;;3.00;;
75450;SDS011;64029;48.244;9.188;2023-04-24T06:35:06;4.70;;;2.40;;
75450;SDS011;64029;48.244;9.188;2023-04-24T06:37:34;2.43;;;2.23;;
75450;SDS011;64029;48.244;9.188;2023-04-24T06:40:01;3.23;;;2.90;;
75450;SDS011;64029;48.244;9.188;2023-04-24T06:42:28;3.03;;;2.53;;
75450;SDS011;64029;48.244;9.188;2023-04-24T06:44:55;3.87;;;3.10;;
75450;SDS011;64029;48.244;9.188;2023-04-24T06:47:22;2.93;;;2.50;;
75450;SDS011;64029;48.244;9.188;2023-04-24T06:49:50;2.80;;;2.40;;
75450;SDS011;64029;48.244;9.188;2023-04-24T06:52:17;3.20;;;2.50;;
75450;SDS011;64029;48.244;9.188;2023-04-24T06:54:44;5.03;;;2.70;;
75450;SDS011;64029;48.244;9.188;2023-04-24T06:57:11;5.73;;;2.70;;
75450;SDS011;64029;48.244;9.188;2023-04-24T06:59:38;8.33;;;4.17;;
75450;SDS011;64029;48.244;9.188;2023-04-24T07:02:05;7.27;;;2.63;;
75450;SDS011;64029;48.244;9.188;2023-04-24T07:04:32;3.63;;;2.03;;
75450;SDS011;64029;48.244;9.188;2023-04-24T07:07:00;2.23;;;2.03;;
75450;SDS011;64029;48.244;9.188;2023-04-24T07:09:28;2.73;;;1.90;;
75450;SDS011;64029;48.244;9.188;2023-04-24T07:11:55;5.50;;;2.13;;
75450;SDS011;64029;48.244;9.188;2023-04-24T07:14:23;4.27;;;2.40;;
75450;SDS011;64029;48.244;9.188;2023-04-24T07:16:49;9.30;;;2.30;;
75450;SDS011;64029;48.244;9.188;2023-04-24T07:19:16;4.23;;;1.70;;
75450;SDS011;64029;48.244;9.188;2023-04-24T07:21:43;2.03;;;1.77;;
75450;SDS011;64029;48.244;9.188;2023-04-24T07:24:12;2.40;;;1.67;;
75450;SDS011;64029;48.244;9.188;2023-04-24T07:26:39;1.87;;;1.70;;
75450;SDS011;64029;48.244;9.188;2023-04-24T07:29:06;2.23;;;1.63;;
75450;SDS011;64029;48.244;9.188;2023-04-24T07:31:33;2.20;;;1.40;;
75450;SDS011;64029;48.244;9.188;2023-04-24T07:34:00;2.17;;;1.70;;
75450;SDS011;64029;48.244;9.188;2023-04-24T07:36:27;2.60;;;1.47;;
75450;SDS011;64029;48.244;9.188;2023-04-24T07:38:53;2.20;;;1.47;;
75450;SDS011;64029;48.244;9.188;2023-04-24T07:41:22;1.83;;;1.50;;
75450;SDS011;64029;48.244;9.188;2023-04-24T07:43:50;1.60;;;1.47;;
75450;SDS011;64029;48.244;9.188;2023-04-24T07:46:17;1.73;;;1.43;;
75450;SDS011;64029;48.244;9.188;2023-04-24T07:48:44;1.40;;;1.30;;
75450;SDS011;64029;48.244;9.188;2023-04-24T07:51:12;2.30;;;1.50;;
75450;SDS011;64029;48.244;9.188;2023-04-24T07:53:39;1.73;;;1.40;;
75450;SDS011;64029;48.244;9.188;2023-04-24T07:56:06;1.50;;;1.40;;
75450;SDS011;64029;48.244;9.188;2023-04-24T07:58:35;1.80;;;1.10;;
75450;SDS011;64029;48.244;9.188;2023-04-24T08:01:01;2.30;;;1.30;;
75450;SDS011;64029;48.244;9.188;2023-04-24T08:03:28;1.10;;;1.00;;
75450;SDS011;64029;48.244;9.188;2023-04-24T08:05:55;1.03;;;0.93;;
75450;SDS011;64029;48.244;9.188;2023-04-24T08:08:22;1.17;;;1.00;;
75450;SDS011;64029;48.244;9.188;2023-04-24T08:10:49;1.00;;;0.90;;
75450;SDS011;64029;48.244;9.188;2023-04-24T08:13:16;0.83;;;0.80;;
75450;SDS011;64029;48.244;9.188;2023-04-24T08:15:44;1.10;;;1.00;;
75450;SDS011;64029;48.244;9.188;2023-04-24T08:18:11;0.90;;;0.70;;
75450;SDS011;64029;48.244;9.188;2023-04-24T08:20:40;1.13;;;0.80;;
75450;SDS011;64029;48.244;9.188;2023-04-24T08:23:07;0.90;;;0.80;;
75450;SDS011;64029;48.244;9.188;2023-04-24T08:25:34;1.67;;;0.90;;
75450;SDS011;64029;48.244;9.188;2023-04-24T08:28:01;1.10;;;0.80;;
75450;SDS011;64029;48.244;9.188;2023-04-24T08:30:29;1.20;;;1.10;;
75450;SDS011;64029;48.244;9.188;2023-04-24T08:32:57;1.27;;;1.00;;
75450;SDS011;64029;48.244;9.188;2023-04-24T08:35:24;2.90;;;1.60;;
75450;SDS011;64029;48.244;9.188;2023-04-24T08:37:51;2.00;;;1.47;;
75450;SDS011;64029;48.244;9.188;2023-04-24T08:40:18;1.60;;;1.50;;
75450;SDS011;64029;48.244;9.188;2023-04-24T08:42:49;2.17;;;1.53;;
75450;SDS011;64029;48.244;9.188;2023-04-24T08:45:20;1.73;;;1.63;;
75450;SDS011;64029;48.244;9.188;2023-04-24T08:47:47;1.70;;;1.60;;
75450;SDS011;64029;48.244;9.188;2023-04-24T08:50:16;3.27;;;1.73;;
75450;SDS011;64029;48.244;9.188;2023-04-24T08:52:43;1.73;;;1.60;;
75450;SDS011;64029;48.244;9.188;2023-04-24T08:55:10;2.37;;;1.80;;
75450;SDS011;64029;48.244;9.188;2023-04-24T08:57:37;6.83;;;2.20;;
75450;SDS011;64029;48.244;9.188;2023-04-24T09:00:05;3.27;;;2.00;;
75450;SDS011;64029;48.244;9.188;2023-04-24T09:02:33;2.37;;;1.80;;
75450;SDS011;64029;48.244;9.188;2023-04-24T09:05:00;2.03;;;1.83;;
75450;SDS011;64029;48.244;9.188;2023-04-24T09:07:31;3.93;;;2.60;;
75450;SDS011;64029;48.244;9.188;2023-04-24T09:10:02;6.80;;;3.20;;
75450;SDS011;64029;48.244;9.188;2023-04-24T09:12:29;4.50;;;2.87;;
75450;SDS011;64029;48.244;9.188;2023-04-24T09:14:56;4.53;;;2.67;;
75450;SDS011;64029;48.244;9.188;2023-04-24T09:17:24;3.67;;;1.90;;
75450;SDS011;64029;48.244;9.188;2023-04-24T09:19:53;2.37;;;2.17;;
75450;SDS011;64029;48.244;9.188;2023-04-24T09:22:20;2.20;;;2.00;;
75450;SDS011;64029;48.244;9.188;2023-04-24T09:24:49;2.10;;;2.00;;
75450;SDS011;64029;48.244;9.188;2023-04-24T09:27:28;3.20;;;2.00;;
75450;SDS011;64029;48.244;9.188;2023-04-24T09:29:55;2.93;;;2.43;;
75450;SDS011;64029;48.244;9.188;2023-04-24T09:32:23;2.50;;;2.30;;
75450;SDS011;64029;48.244;9.188;2023-04-24T09:35:04;2.40;;;2.20;;
75450;SDS011;64029;48.244;9.188;2023-04-24T09:37:34;2.43;;;2.23;;
75450;SDS011;64029;48.244;9.188;2023-04-24T09:40:14;2.57;;;2.37;;
75450;SDS011;64029;48.244;9.188;2023-04-24T09:42:46;2.57;;;2.37;;
75450;SDS011;64029;48.244;9.188;2023-04-24T09:45:17;2.60;;;2.20;;
75450;SDS011;64029;48.244;9.188;2023-04-24T09:47:44;2.40;;;2.20;;
75450;SDS011;64029;48.244;9.188;2023-04-24T09:50:12;3.83;;;2.20;;
75450;SDS011;64029;48.244;9.188;2023-04-24T09:52:40;2.60;;;2.40;;
75450;SDS011;64029;48.244;9.188;2023-04-24T09:55:20;2.97;;;2.10;;
75450;SDS011;64029;48.244;9.188;2023-04-24T09:57:48;2.40;;;2.00;;
75450;SDS011;64029;48.244;9.188;2023-04-24T10:00:21;3.50;;;2.17;;
75450;SDS011;64029;48.244;9.188;2023-04-24T10:02:55;3.57;;;2.07;;
75450;SDS011;64029;48.244;9.188;2023-04-24T10:05:23;3.00;;;2.10;;
75450;SDS011;64029;48.244;9.188;2023-04-24T10:07:51;2.97;;;1.90;;
75450;SDS011;64029;48.244;9.188;2023-04-24T10:10:17;2.07;;;1.93;;
75450;SDS011;64029;48.244;9.188;2023-04-24T10:12:46;4.40;;;1.80;;
75450;SDS011;64029;48.244;9.188;2023-04-24T10:15:13;2.30;;;2.03;;
75450;SDS011;64029;48.244;9.188;2023-04-24T10:17:45;3.60;;;2.00;;
75450;SDS011;64029;48.244;9.188;2023-04-24T10:20:17;2.23;;;2.03;;
75450;SDS011;64029;48.244;9.188;2023-04-24T10:22:45;2.30;;;2.10;;
75450;SDS011;64029;48.244;9.188;2023-04-24T10:25:16;2.33;;;1.90;;
75450;SDS011;64029;48.244;9.188;2023-04-24T10:27:46;2.37;;;2.03;;
75450;SDS011;64029;48.244;9.188;2023-04-24T10:30:13;4.23;;;2.03;;
75450;SDS011;64029;48.244;9.188;2023-04-24T10:32:41;3.10;;;2.10;;
75450;SDS011;64029;48.244;9.188;2023-04-24T10:35:08;10.93;;;2.30;;
75450;SDS011;64029;48.244;9.188;2023-04-24T10:37:36;3.70;;;2.40;;
75450;SDS011;64029;48.244;9.188;2023-04-24T10:40:07;2.13;;;2.00;;
75450;SDS011;64029;48.244;9.188;2023-04-24T10:42:39;2.20;;;1.83;;
75450;SDS011;64029;48.244;9.188;2023-04-24T10:45:16;2.80;;;1.97;;
75450;SDS011;64029;48.244;9.188;2023-04-24T10:47:51;3.20;;;2.00;;
75450;SDS011;64029;48.244;9.188;2023-04-24T10:50:18;1.80;;;1.70;;
75450;SDS011;64029;48.244;9.188;2023-04-24T10:52:45;4.40;;;1.83;;
75450;SDS011;64029;48.244;9.188;2023-04-24T10:55:13;2.20;;;1.63;;
75450;SDS011;64029;48.244;9.188;2023-04-24T10:57:47;3.37;;;2.07;;
75450;SDS011;64029;48.244;9.188;2023-04-24T11:00:28;3.53;;;2.40;;
75450;SDS011;64029;48.244;9.188;2023-04-24T11:02:56;2.53;;;1.70;;
75450;SDS011;64029;48.244;9.188;2023-04-24T11:05:48;2.50;;;1.77;;
75450;SDS011;64029;48.244;9.188;2023-04-24T11:08:21;3.20;;;2.00;;
75450;SDS011;64029;48.244;9.188;2023-04-24T11:10:54;4.13;;;1.83;;
75450;SDS011;64029;48.244;9.188;2023-04-24T11:13:25;2.63;;;2.00;;
75450;SDS011;64029;48.244;9.188;2023-04-24T11:16:13;3.50;;;2.23;;
75450;SDS011;64029;48.244;9.188;2023-04-24T11:18:42;2.53;;;2.13;;
75450;SDS011;64029;48.244;9.188;2023-04-24T11:21:15;2.57;;;2.20;;
75450;SDS011;64029;48.244;9.188;2023-04-24T11:23:43;3.73;;;2.27;;
75450;SDS011;64029;48.244;9.188;2023-04-24T11:26:12;2.83;;;2.00;;
75450;SDS011;64029;48.244;9.188;2023-04-24T11:28:46;2.20;;;1.77;;
75450;SDS011;64029;48.244;9.188;2023-04-24T11:34:08;3.20;;;2.03;;
75450;SDS011;64029;48.244;9.188;2023-04-24T11:36:37;3.20;;;1.80;;
75450;SDS011;64029;48.244;9.188;2023-04-24T11:39:04;1.70;;;1.60;;
75450;SDS011;64029;48.244;9.188;2023-04-24T11:41:31;3.43;;;1.97;;
75450;SDS011;64029;48.244;9.188;2023-04-24T11:43:59;2.80;;;1.83;;
75450;SDS011;64029;48.244;9.188;2023-04-24T11:46:27;2.07;;;1.60;;
75450;SDS011;64029;48.244;9.188;2023-04-24T11:48:56;3.50;;;1.40;;
75450;SDS011;64029;48.244;9.188;2023-04-24T11:51:23;4.07;;;1.90;;
75450;SDS011;64029;48.244;9.188;2023-04-24T11:53:51;4.10;;;1.97;;
75450;SDS011;64029;48.244;9.188;2023-04-24T11:56:19;3.77;;;1.80;;
75450;SDS011;64029;48.244;9.188;2023-04-24T11:58:47;2.23;;;1.87;;
75450;SDS011;64029;48.244;9.188;2023-04-24T12:01:14;5.50;;;2.90;;
75450;SDS011;64029;48.244;9.188;2023-04-24T12:03:41;3.67;;;2.33;;
75450;SDS011;64029;48.244;9.188;2023-04-24T12:06:13;2.00;;;1.80;;
75450;SDS011;64029;48.244;9.188;2023-04-24T12:08:40;3.00;;;1.73;;
75450;SDS011;64029;48.244;9.188;2023-04-24T12:11:07;2.07;;;1.83;;
75450;SDS011;64029;48.244;9.188;2023-04-24T12:13:34;4.10;;;1.70;;
75450;SDS011;64029;48.244;9.188;2023-04-24T12:16:01;2.53;;;1.83;;
75450;SDS011;64029;48.244;9.188;2023-04-24T12:18:29;3.37;;;1.40;;
75450;SDS011;64029;48.244;9.188;2023-04-24T12:23:42;1.80;;;1.70;;
75450;SDS011;64029;48.244;9.188;2023-04-24T12:26:10;2.80;;;1.70;;
75450;SDS011;64029;48.244;9.188;2023-04-24T12:28:37;3.23;;;1.43;;
75450;SDS011;64029;48.244;9.188;2023-04-24T12:31:05;2.27;;;1.60;;
75450;SDS011;64029;48.244;9.188;2023-04-24T12:33:33;1.87;;;1.70;;
75450;SDS011;64029;48.244;9.188;2023-04-24T12:36:01;2.50;;;1.20;;
75450;SDS011;64029;48.244;9.188;2023-04-24T12:38:29;2.50;;;1.70;;
75450;SDS011;64029;48.244;9.188;2023-04-24T12:41:02;1.73;;;1.20;;
75450;SDS011;64029;48.244;9.188;2023-04-24T12:43:31;2.47;;;1.53;;
75450;SDS011;64029;48.244;9.188;2023-04-24T12:45:58;1.10;;;1.00;;
75450;SDS011;64029;48.244;9.188;2023-04-24T12:48:25;1.50;;;1.30;;
75450;SDS011;64029;48.244;9.188;2023-04-24T12:50:52;1.90;;;1.60;;
75450;SDS011;64029;48.244;9.188;2023-04-24T12:53:20;2.53;;;1.50;;
75450;SDS011;64029;48.244;9.188;2023-04-24T12:55:49;2.83;;;1.20;;
75450;SDS011;64029;48.244;9.188;2023-04-24T12:58:18;1.57;;;1.40;;
75450;SDS011;64029;48.244;9.188;2023-04-24T13:00:46;1.70;;;1.40;;
75450;SDS011;64029;48.244;9.188;2023-04-24T13:03:12;1.57;;;1.43;;
75450;SDS011;64029;48.244;9.188;2023-04-24T13:05:40;2.43;;;1.50;;
75450;SDS011;64029;48.244;9.188;2023-04-24T13:08:08;2.13;;;1.50;;
75450;SDS011;64029;48.244;9.188;2023-04-24T13:10:34;2.50;;;1.47;;
75450;SDS011;64029;48.244;9.188;2023-04-24T13:13:03;2.20;;;1.37;;
75450;SDS011;64029;48.244;9.188;2023-04-24T13:15:30;1.43;;;1.30;;
75450;SDS011;64029;48.244;9.188;2023-04-24T13:18:01;1.83;;;1.33;;
75450;SDS011;64029;48.244;9.188;2023-04-24T13:20:32;2.10;;;1.50;;
75450;SDS011;64029;48.244;9.188;2023-04-24T13:23:00;1.30;;;1.20;;
75450;SDS011;64029;48.244;9.188;2023-04-24T13:25:27;1.50;;;1.40;;
75450;SDS011;64029;48.244;9.188;2023-04-24T13:27:54;1.87;;;1.50;;
75450;SDS011;64029;48.244;9.188;2023-04-24T13:30:22;1.63;;;1.20;;
75450;SDS011;64029;48.244;9.188;2023-04-24T13:32:49;1.77;;;1.47;;
75450;SDS011;64029;48.244;9.188;2023-04-24T13:35:16;2.50;;;1.50;;
75450;SDS011;64029;48.244;9.188;2023-04-24T13:37:43;3.30;;;1.40;;
75450;SDS011;64029;48.244;9.188;2023-04-24T13:40:10;1.43;;;1.33;;
75450;SDS011;64029;48.244;9.188;2023-04-24T13:42:37;1.60;;;1.30;;
75450;SDS011;64029;48.244;9.188;2023-04-24T13:45:04;1.40;;;1.30;;
75450;SDS011;64029;48.244;9.188;2023-04-24T13:47:33;1.90;;;1.40;;
75450;SDS011;64029;48.244;9.188;2023-04-24T13:50:01;2.70;;;1.37;;
75450;SDS011;64029;48.244;9.188;2023-04-24T13:52:28;1.37;;;1.27;;
75450;SDS011;64029;48.244;9.188;2023-04-24T13:54:54;5.23;;;1.20;;
75450;SDS011;64029;48.244;9.188;2023-04-24T13:57:21;1.30;;;1.20;;
75450;SDS011;64029;48.244;9.188;2023-04-24T13:59:48;1.43;;;1.23;;
75450;SDS011;64029;48.244;9.188;2023-04-24T14:02:15;2.30;;;1.57;;
75450;SDS011;64029;48.244;9.188;2023-04-24T14:04:43;1.30;;;1.20;;
75450;SDS011;64029;48.244;9.188;2023-04-24T14:07:10;1.30;;;1.20;;
75450;SDS011;64029;48.244;9.188;2023-04-24T14:09:36;1.30;;;1.20;;
75450;SDS011;64029;48.244;9.188;2023-04-24T14:12:03;1.70;;;1.43;;
75450;SDS011;64029;48.244;9.188;2023-04-24T14:14:31;4.13;;;1.20;;
75450;SDS011;64029;48.244;9.188;2023-04-24T14:16:58;1.67;;;1.33;;
75450;SDS011;64029;48.244;9.188;2023-04-24T14:19:25;1.40;;;1.30;;
75450;SDS011;64029;48.244;9.188;2023-04-24T14:21:53;2.07;;;1.83;;
75450;SDS011;64029;48.244;9.188;2023-04-24T14:24:21;3.97;;;1.50;;
75450;SDS011;64029;48.244;9.188;2023-04-24T14:26:48;2.07;;;1.20;;
75450;SDS011;64029;48.244;9.188;2023-04-24T14:29:15;1.50;;;1.40;;
75450;SDS011;64029;48.244;9.188;2023-04-24T14:31:42;1.60;;;1.50;;
75450;SDS011;64029;48.244;9.188;2023-04-24T14:34:09;2.60;;;1.40;;
75450;SDS011;64029;48.244;9.188;2023-04-24T14:36:37;3.37;;;1.87;;
75450;SDS011;64029;48.244;9.188;2023-04-24T14:39:05;4.23;;;2.00;;
75450;SDS011;64029;48.244;9.188;2023-04-24T14:41:32;5.40;;;2.57;;
75450;SDS011;64029;48.244;9.188;2023-04-24T14:44:00;2.23;;;1.40;;
75450;SDS011;64029;48.244;9.188;2023-04-24T14:46:28;1.47;;;1.37;;
75450;SDS011;64029;48.244;9.188;2023-04-24T14:48:56;1.33;;;1.23;;
75450;SDS011;64029;48.244;9.188;2023-04-24T14:51:23;3.80;;;1.43;;
75450;SDS011;64029;48.244;9.188;2023-04-24T14:53:51;4.03;;;1.50;;
75450;SDS011;64029;48.244;9.188;2023-04-24T14:56:20;5.13;;;1.67;;
75450;SDS011;64029;48.244;9.188;2023-04-24T14:58:46;3.90;;;1.53;;